sensor_id;sensor_type;location;lat;lon;timestamp;pressure;altitude;pressure_sealevel;temperature;humidity
73918;BME280;63639;52.280;5.162;2022-12-24T00:01:03;100594.84;;;12.98;72.54
73918;BME280;63639;52.280;5.162;2022-12-24T00:03:29;100606.10;;;12.83;72.89
73918;BME280;63639;52.280;5.162;2022-12-24T00:05:56;100618.88;;;12.54;74.06
73918;BME280;63639;52.280;5.162;2022-12-24T00:08:23;100625.28;;;12.85;72.88
73918;BME280;63639;52.280;5.162;2022-12-24T00:10:50;100618.17;;;12.74;73.12
73918;BME280;63639;52.280;5.162;2022-12-24T00:13:18;100616.58;;;12.88;72.81
73918;BME280;63639;52.280;5.162;2022-12-24T00:15:46;100626.58;;;12.74;72.55
73918;BME280;63639;52.280;5.162;2022-12-24T00:18:13;100627.96;;;12.83;72.98
73918;BME280;63639;52.280;5.162;2022-12-24T00:20:41;100620.98;;;12.99;72.68
73918;BME280;63639;52.280;5.162;2022-12-24T00:23:11;100637.45;;;12.45;73.67
73918;BME280;63639;52.280;5.162;2022-12-24T00:25:38;100631.13;;;12.58;73.57
73918;BME280;63639;52.280;5.162;2022-12-24T00:28:05;100637.09;;;12.82;73.42
73918;BME280;63639;52.280;5.162;2022-12-24T00:30:31;100635.58;;;12.83;73.11
73918;BME280;63639;52.280;5.162;2022-12-24T00:32:58;100639.38;;;12.94;72.95
73918;BME280;63639;52.280;5.162;2022-12-24T00:35:25;100644.00;;;12.90;72.29
73918;BME280;63639;52.280;5.162;2022-12-24T00:37:51;100643.49;;;12.84;73.41
73918;BME280;63639;52.280;5.162;2022-12-24T00:40:18;100647.44;;;13.00;72.98
73918;BME280;63639;52.280;5.162;2022-12-24T00:42:44;100646.22;;;12.74;73.20
73918;BME280;63639;52.280;5.162;2022-12-24T00:45:11;100659.78;;;12.80;73.32
73918;BME280;63639;52.280;5.162;2022-12-24T00:47:38;100654.29;;;12.67;73.64
73918;BME280;63639;52.280;5.162;2022-12-24T00:50:06;100662.66;;;12.64;73.33
73918;BME280;63639;52.280;5.162;2022-12-24T00:52:33;100668.68;;;12.63;73.43
73918;BME280;63639;52.280;5.162;2022-12-24T00:55:00;100665.43;;;12.25;75.08
73918;BME280;63639;52.280;5.162;2022-12-24T00:57:27;100673.43;;;12.47;73.84
73918;BME280;63639;52.280;5.162;2022-12-24T00:59:53;100691.04;;;12.47;74.08
73918;BME280;63639;52.280;5.162;2022-12-24T01:02:20;100692.49;;;12.50;74.36
73918;BME280;63639;52.280;5.162;2022-12-24T01:04:47;100694.26;;;12.41;74.37
73918;BME280;63639;52.280;5.162;2022-12-24T01:07:14;100693.33;;;12.40;73.78
73918;BME280;63639;52.280;5.162;2022-12-24T01:09:41;100695.98;;;12.45;74.34
73918;BME280;63639;52.280;5.162;2022-12-24T01:12:07;100699.39;;;12.09;75.45
73918;BME280;63639;52.280;5.162;2022-12-24T01:14:35;100709.68;;;12.40;74.35
73918;BME280;63639;52.280;5.162;2022-12-24T01:17:02;100715.42;;;12.24;74.66
73918;BME280;63639;52.280;5.162;2022-12-24T01:19:29;100726.87;;;12.35;74.15
73918;BME280;63639;52.280;5.162;2022-12-24T01:21:57;100720.02;;;12.48;73.98
73918;BME280;63639;52.280;5.162;2022-12-24T01:24:23;100723.98;;;12.40;73.64
73918;BME280;63639;52.280;5.162;2022-12-24T01:26:50;100732.87;;;12.46;73.70
73918;BME280;63639;52.280;5.162;2022-12-24T01:29:17;100740.66;;;12.56;73.46
73918;BME280;63639;52.280;5.162;2022-12-24T01:31:44;100735.61;;;12.59;72.87
73918;BME280;63639;52.280;5.162;2022-12-24T01:34:11;100742.60;;;12.75;72.33
73918;BME280;63639;52.280;5.162;2022-12-24T01:36:38;100747.58;;;12.81;72.03
73918;BME280;63639;52.280;5.162;2022-12-24T01:39:05;100747.64;;;12.45;72.57
73918;BME280;63639;52.280;5.162;2022-12-24T01:41:32;100754.02;;;12.65;72.25
73918;BME280;63639;52.280;5.162;2022-12-24T01:44:15;100755.68;;;12.67;71.98
73918;BME280;63639;52.280;5.162;2022-12-24T01:46:43;100750.34;;;12.77;71.71
73918;BME280;63639;52.280;5.162;2022-12-24T01:49:13;100751.52;;;12.64;72.19
73918;BME280;63639;52.280;5.162;2022-12-24T01:51:44;100753.97;;;12.73;71.89
73918;BME280;63639;52.280;5.162;2022-12-24T01:54:16;100757.86;;;12.57;71.96
73918;BME280;63639;52.280;5.162;2022-12-24T01:56:46;100760.51;;;12.33;73.04
73918;BME280;63639;52.280;5.162;2022-12-24T01:59:16;100761.21;;;12.72;72.30
73918;BME280;63639;52.280;5.162;2022-12-24T02:03:01;100767.81;;;12.85;71.22
73918;BME280;63639;52.280;5.162;2022-12-24T02:05:32;100770.24;;;12.64;71.83
73918;BME280;63639;52.280;5.162;2022-12-24T02:08:02;100775.23;;;12.64;71.64
73918;BME280;63639;52.280;5.162;2022-12-24T02:10:30;100779.37;;;12.55;71.70
73918;BME280;63639;52.280;5.162;2022-12-24T02:12:57;100785.08;;;12.74;71.77
73918;BME280;63639;52.280;5.162;2022-12-24T02:15:26;100789.04;;;12.66;71.49
73918;BME280;63639;52.280;5.162;2022-12-24T02:18:01;100791.24;;;12.67;71.63
73918;BME280;63639;52.280;5.162;2022-12-24T02:20:45;100797.77;;;13.03;70.64
73918;BME280;63639;52.280;5.162;2022-12-24T02:23:37;100802.43;;;12.80;70.89
73918;BME280;63639;52.280;5.162;2022-12-24T02:26:20;100803.08;;;12.57;71.54
73918;BME280;63639;52.280;5.162;2022-12-24T02:29:13;100804.51;;;12.53;71.45
73918;BME280;63639;52.280;5.162;2022-12-24T02:31:49;100799.61;;;12.76;70.98
73918;BME280;63639;52.280;5.162;2022-12-24T02:34:22;100805.42;;;12.53;71.87
73918;BME280;63639;52.280;5.162;2022-12-24T02:36:57;100809.90;;;12.09;73.44
73918;BME280;63639;52.280;5.162;2022-12-24T02:39:30;100819.63;;;11.87;74.27
73918;BME280;63639;52.280;5.162;2022-12-24T02:42:01;100822.27;;;11.85;74.46
73918;BME280;63639;52.280;5.162;2022-12-24T02:44:33;100820.15;;;11.95;73.84
73918;BME280;63639;52.280;5.162;2022-12-24T02:47:02;100826.25;;;11.69;74.78
73918;BME280;63639;52.280;5.162;2022-12-24T02:49:30;100824.96;;;11.61;74.85
73918;BME280;63639;52.280;5.162;2022-12-24T02:51:58;100831.08;;;11.98;73.88
73918;BME280;63639;52.280;5.162;2022-12-24T02:54:25;100828.84;;;12.12;73.30
73918;BME280;63639;52.280;5.162;2022-12-24T02:57:05;100833.48;;;12.27;72.24
73918;BME280;63639;52.280;5.162;2022-12-24T02:59:46;100836.28;;;11.88;73.29
73918;BME280;63639;52.280;5.162;2022-12-24T03:02:24;100841.00;;;12.16;72.73
73918;BME280;63639;52.280;5.162;2022-12-24T03:04:58;100840.07;;;12.18;72.22
73918;BME280;63639;52.280;5.162;2022-12-24T03:07:33;100839.16;;;11.61;73.60
73918;BME280;63639;52.280;5.162;2022-12-24T03:10:12;100838.28;;;11.97;73.05
73918;BME280;63639;52.280;5.162;2022-12-24T03:12:47;100837.44;;;11.93;72.53
73918;BME280;63639;52.280;5.162;2022-12-24T03:15:17;100836.45;;;11.81;73.17
73918;BME280;63639;52.280;5.162;2022-12-24T03:17:46;100837.54;;;12.11;72.57
73918;BME280;63639;52.280;5.162;2022-12-24T03:20:19;100840.13;;;12.18;71.46
73918;BME280;63639;52.280;5.162;2022-12-24T03:22:47;100838.57;;;12.23;71.49
73918;BME280;63639;52.280;5.162;2022-12-24T03:25:14;100833.70;;;12.35;71.26
73918;BME280;63639;52.280;5.162;2022-12-24T03:27:42;100842.67;;;12.22;71.05
73918;BME280;63639;52.280;5.162;2022-12-24T03:30:12;100842.53;;;12.46;71.18
73918;BME280;63639;52.280;5.162;2022-12-24T03:32:40;100850.09;;;12.60;70.13
73918;BME280;63639;52.280;5.162;2022-12-24T03:35:07;100854.13;;;12.72;69.52
73918;BME280;63639;52.280;5.162;2022-12-24T03:37:34;100859.85;;;12.36;70.79
73918;BME280;63639;52.280;5.162;2022-12-24T03:40:02;100859.01;;;12.22;71.50
73918;BME280;63639;52.280;5.162;2022-12-24T03:42:28;100860.82;;;12.30;71.09
73918;BME280;63639;52.280;5.162;2022-12-24T03:44:55;100861.12;;;12.29;71.32
73918;BME280;63639;52.280;5.162;2022-12-24T03:47:22;100864.00;;;12.00;72.43
73918;BME280;63639;52.280;5.162;2022-12-24T03:49:48;100869.43;;;12.01;72.86
73918;BME280;63639;52.280;5.162;2022-12-24T03:52:15;100865.50;;;12.14;72.61
73918;BME280;63639;52.280;5.162;2022-12-24T03:54:42;100865.40;;;12.15;72.22
73918;BME280;63639;52.280;5.162;2022-12-24T03:57:08;100867.14;;;12.27;72.09
73918;BME280;63639;52.280;5.162;2022-12-24T03:59:35;100869.23;;;12.16;72.71
73918;BME280;63639;52.280;5.162;2022-12-24T04:02:02;100870.72;;;12.15;73.08
73918;BME280;63639;52.280;5.162;2022-12-24T04:04:28;100865.03;;;12.07;73.35
73918;BME280;63639;52.280;5.162;2022-12-24T04:06:55;100874.80;;;12.36;72.63
73918;BME280;63639;52.280;5.162;2022-12-24T04:09:22;100877.96;;;12.19;73.35
73918;BME280;63639;52.280;5.162;2022-12-24T04:11:48;100880.67;;;12.09;73.71
73918;BME280;63639;52.280;5.162;2022-12-24T04:14:15;100881.27;;;11.78;75.41
73918;BME280;63639;52.280;5.162;2022-12-24T04:16:42;100878.56;;;12.19;74.02
73918;BME280;63639;52.280;5.162;2022-12-24T04:19:09;100874.82;;;12.36;73.63
73918;BME280;63639;52.280;5.162;2022-12-24T04:21:35;100880.42;;;12.38;73.53
73918;BME280;63639;52.280;5.162;2022-12-24T04:24:02;100883.89;;;12.55;72.72
73918;BME280;63639;52.280;5.162;2022-12-24T04:26:29;100890.47;;;12.70;72.64
73918;BME280;63639;52.280;5.162;2022-12-24T04:28:56;100890.74;;;12.52;72.80
73918;BME280;63639;52.280;5.162;2022-12-24T04:31:23;100893.67;;;12.64;72.75
73918;BME280;63639;52.280;5.162;2022-12-24T04:33:51;100898.91;;;12.62;72.94
73918;BME280;63639;52.280;5.162;2022-12-24T04:36:18;100897.77;;;12.32;73.90
73918;BME280;63639;52.280;5.162;2022-12-24T04:38:47;100895.17;;;12.43;73.81
73918;BME280;63639;52.280;5.162;2022-12-24T04:41:16;100902.19;;;12.29;74.04
73918;BME280;63639;52.280;5.162;2022-12-24T04:43:49;100903.24;;;12.39;73.93
73918;BME280;63639;52.280;5.162;2022-12-24T04:46:18;100903.12;;;12.42;74.03
73918;BME280;63639;52.280;5.162;2022-12-24T04:48:47;100902.46;;;12.35;74.27
73918;BME280;63639;52.280;5.162;2022-12-24T04:51:14;100904.67;;;12.14;75.23
73918;BME280;63639;52.280;5.162;2022-12-24T04:53:41;100901.40;;;12.21;74.84
73918;BME280;63639;52.280;5.162;2022-12-24T04:56:11;100900.83;;;12.21;75.06
73918;BME280;63639;52.280;5.162;2022-12-24T04:58:39;100904.88;;;12.59;74.10
73918;BME280;63639;52.280;5.162;2022-12-24T05:01:08;100907.93;;;12.35;74.73
73918;BME280;63639;52.280;5.162;2022-12-24T05:03:37;100908.94;;;12.37;74.76
73918;BME280;63639;52.280;5.162;2022-12-24T05:06:07;100911.63;;;12.45;74.43
73918;BME280;63639;52.280;5.162;2022-12-24T05:08:34;100912.63;;;12.44;74.58
73918;BME280;63639;52.280;5.162;2022-12-24T05:11:02;100906.19;;;12.45;74.84
73918;BME280;63639;52.280;5.162;2022-12-24T05:13:29;100907.13;;;12.43;74.73
73918;BME280;63639;52.280;5.162;2022-12-24T05:15:56;100904.70;;;12.39;74.69
73918;BME280;63639;52.280;5.162;2022-12-24T05:18:23;100902.52;;;12.56;74.44
73918;BME280;63639;52.280;5.162;2022-12-24T05:20:51;100903.03;;;12.51;74.65
73918;BME280;63639;52.280;5.162;2022-12-24T05:23:20;100899.64;;;12.34;75.12
73918;BME280;63639;52.280;5.162;2022-12-24T05:25:47;100904.97;;;12.16;76.11
73918;BME280;63639;52.280;5.162;2022-12-24T05:28:14;100911.60;;;12.13;76.25
73918;BME280;63639;52.280;5.162;2022-12-24T05:30:41;100907.41;;;12.04;76.69
73918;BME280;63639;52.280;5.162;2022-12-24T05:33:08;100910.32;;;12.39;75.93
73918;BME280;63639;52.280;5.162;2022-12-24T05:35:34;100919.63;;;12.58;75.21
73918;BME280;63639;52.280;5.162;2022-12-24T05:38:01;100924.46;;;12.02;77.47
73918;BME280;63639;52.280;5.162;2022-12-24T05:40:28;100925.19;;;12.29;77.27
73918;BME280;63639;52.280;5.162;2022-12-24T05:42:54;100932.44;;;12.58;75.96
73918;BME280;63639;52.280;5.162;2022-12-24T05:45:21;100933.28;;;12.80;75.29
73918;BME280;63639;52.280;5.162;2022-12-24T05:47:48;100930.23;;;12.92;74.73
73918;BME280;63639;52.280;5.162;2022-12-24T05:50:15;100932.21;;;12.64;75.05
73918;BME280;63639;52.280;5.162;2022-12-24T05:52:42;100933.31;;;12.85;74.97
73918;BME280;63639;52.280;5.162;2022-12-24T05:55:09;100940.50;;;12.87;74.40
73918;BME280;63639;52.280;5.162;2022-12-24T05:57:36;100933.20;;;13.08;73.97
73918;BME280;63639;52.280;5.162;2022-12-24T06:00:05;100928.01;;;13.08;73.38
73918;BME280;63639;52.280;5.162;2022-12-24T06:02:32;100932.15;;;13.11;73.44
73918;BME280;63639;52.280;5.162;2022-12-24T06:04:59;100941.06;;;13.01;73.72
73918;BME280;63639;52.280;5.162;2022-12-24T06:07:25;100943.19;;;12.87;74.15
73918;BME280;63639;52.280;5.162;2022-12-24T06:09:52;100941.19;;;12.16;76.86
73918;BME280;63639;52.280;5.162;2022-12-24T06:12:19;100942.31;;;11.92;78.71
73918;BME280;63639;52.280;5.162;2022-12-24T06:14:46;100942.93;;;12.29;77.48
73918;BME280;63639;52.280;5.162;2022-12-24T06:17:12;100946.82;;;12.37;77.23
73918;BME280;63639;52.280;5.162;2022-12-24T06:19:39;100951.75;;;12.06;78.05
73918;BME280;63639;52.280;5.162;2022-12-24T06:22:06;100954.35;;;11.94;78.75
73918;BME280;63639;52.280;5.162;2022-12-24T06:24:33;100964.04;;;12.29;77.73
73918;BME280;63639;52.280;5.162;2022-12-24T06:27:00;100961.58;;;12.32;77.21
73918;BME280;63639;52.280;5.162;2022-12-24T06:29:26;100959.02;;;12.65;76.44
73918;BME280;63639;52.280;5.162;2022-12-24T06:31:53;100962.15;;;12.71;75.34
73918;BME280;63639;52.280;5.162;2022-12-24T06:34:20;100964.79;;;12.44;76.35
73918;BME280;63639;52.280;5.162;2022-12-24T06:36:46;100965.95;;;12.11;77.66
73918;BME280;63639;52.280;5.162;2022-12-24T06:39:13;100973.39;;;12.21;77.76
73918;BME280;63639;52.280;5.162;2022-12-24T06:41:40;100974.77;;;12.38;77.01
73918;BME280;63639;52.280;5.162;2022-12-24T06:44:07;100974.72;;;12.33;76.93
73918;BME280;63639;52.280;5.162;2022-12-24T06:46:34;100977.92;;;12.32;77.13
73918;BME280;63639;52.280;5.162;2022-12-24T06:49:00;100979.28;;;12.12;77.61
73918;BME280;63639;52.280;5.162;2022-12-24T06:51:27;100985.82;;;12.28;76.77
73918;BME280;63639;52.280;5.162;2022-12-24T06:53:54;100984.64;;;12.00;78.39
73918;BME280;63639;52.280;5.162;2022-12-24T06:56:21;100980.92;;;11.69;79.35
73918;BME280;63639;52.280;5.162;2022-12-24T06:58:48;100983.67;;;12.08;77.92
73918;BME280;63639;52.280;5.162;2022-12-24T07:01:17;100990.66;;;11.98;78.06
73918;BME280;63639;52.280;5.162;2022-12-24T07:03:44;100994.62;;;11.94;78.34
73918;BME280;63639;52.280;5.162;2022-12-24T07:06:17;100990.76;;;12.02;78.20
73918;BME280;63639;52.280;5.162;2022-12-24T07:08:44;100996.11;;;11.68;79.58
73918;BME280;63639;52.280;5.162;2022-12-24T07:11:11;101004.34;;;11.88;78.67
73918;BME280;63639;52.280;5.162;2022-12-24T07:13:38;101005.39;;;11.99;78.00
73918;BME280;63639;52.280;5.162;2022-12-24T07:16:06;101013.01;;;12.44;76.71
73918;BME280;63639;52.280;5.162;2022-12-24T07:18:33;101014.03;;;12.53;75.77
73918;BME280;63639;52.280;5.162;2022-12-24T07:21:02;101013.48;;;12.40;76.28
73918;BME280;63639;52.280;5.162;2022-12-24T07:23:28;101015.30;;;12.06;77.40
73918;BME280;63639;52.280;5.162;2022-12-24T07:25:58;101014.94;;;12.38;76.40
73918;BME280;63639;52.280;5.162;2022-12-24T07:28:30;101014.72;;;12.43;75.96
73918;BME280;63639;52.280;5.162;2022-12-24T07:30:57;101010.06;;;12.55;75.10
73918;BME280;63639;52.280;5.162;2022-12-24T07:33:25;101016.52;;;12.34;75.33
73918;BME280;63639;52.280;5.162;2022-12-24T07:35:57;101011.93;;;12.42;75.14
73918;BME280;63639;52.280;5.162;2022-12-24T07:38:23;101024.23;;;12.40;75.20
73918;BME280;63639;52.280;5.162;2022-12-24T07:40:50;101039.47;;;12.61;74.53
73918;BME280;63639;52.280;5.162;2022-12-24T07:43:17;101045.62;;;12.66;74.59
73918;BME280;63639;52.280;5.162;2022-12-24T07:45:43;101049.27;;;12.57;74.65
73918;BME280;63639;52.280;5.162;2022-12-24T07:48:10;101054.38;;;12.48;75.21
73918;BME280;63639;52.280;5.162;2022-12-24T07:50:37;101067.08;;;12.10;76.42
73918;BME280;63639;52.280;5.162;2022-12-24T07:53:03;101071.81;;;12.18;76.13
73918;BME280;63639;52.280;5.162;2022-12-24T07:55:30;101079.07;;;12.20;76.21
73918;BME280;63639;52.280;5.162;2022-12-24T07:57:57;101077.56;;;12.32;75.87
73918;BME280;63639;52.280;5.162;2022-12-24T08:00:24;101076.16;;;12.14;76.59
73918;BME280;63639;52.280;5.162;2022-12-24T08:02:51;101081.28;;;12.25;76.26
73918;BME280;63639;52.280;5.162;2022-12-24T08:05:18;101094.98;;;12.34;75.51
73918;BME280;63639;52.280;5.162;2022-12-24T08:07:45;101095.48;;;11.89;77.31
73918;BME280;63639;52.280;5.162;2022-12-24T08:10:12;101104.39;;;12.16;76.57
73918;BME280;63639;52.280;5.162;2022-12-24T08:12:38;101106.97;;;11.98;77.12
73918;BME280;63639;52.280;5.162;2022-12-24T08:15:06;101109.27;;;11.92;77.32
73918;BME280;63639;52.280;5.162;2022-12-24T08:17:33;101116.89;;;11.80;78.03
73918;BME280;63639;52.280;5.162;2022-12-24T08:20:00;101108.97;;;11.97;77.36
73918;BME280;63639;52.280;5.162;2022-12-24T08:22:27;101110.37;;;12.01;76.80
73918;BME280;63639;52.280;5.162;2022-12-24T08:24:54;101120.93;;;11.90;77.38
73918;BME280;63639;52.280;5.162;2022-12-24T08:27:21;101119.58;;;11.97;77.21
73918;BME280;63639;52.280;5.162;2022-12-24T08:29:48;101129.77;;;11.62;78.35
73918;BME280;63639;52.280;5.162;2022-12-24T08:32:15;101129.97;;;11.99;77.37
73918;BME280;63639;52.280;5.162;2022-12-24T08:34:41;101128.62;;;12.09;76.72
73918;BME280;63639;52.280;5.162;2022-12-24T08:37:08;101128.66;;;12.28;75.39
73918;BME280;63639;52.280;5.162;2022-12-24T08:39:35;101134.79;;;12.02;76.78
73918;BME280;63639;52.280;5.162;2022-12-24T08:42:02;101141.58;;;12.17;76.50
73918;BME280;63639;52.280;5.162;2022-12-24T08:44:29;101148.09;;;12.16;76.00
73918;BME280;63639;52.280;5.162;2022-12-24T08:46:56;101151.94;;;12.22;75.98
73918;BME280;63639;52.280;5.162;2022-12-24T08:49:23;101162.50;;;12.05;76.05
73918;BME280;63639;52.280;5.162;2022-12-24T08:51:49;101160.29;;;12.14;75.85
73918;BME280;63639;52.280;5.162;2022-12-24T08:54:17;101168.83;;;12.02;76.62
73918;BME280;63639;52.280;5.162;2022-12-24T08:56:44;101170.15;;;12.53;75.08
73918;BME280;63639;52.280;5.162;2022-12-24T08:59:11;101175.11;;;12.63;74.07
73918;BME280;63639;52.280;5.162;2022-12-24T09:01:38;101170.81;;;12.26;75.59
73918;BME280;63639;52.280;5.162;2022-12-24T09:04:05;101179.13;;;12.20;75.41
73918;BME280;63639;52.280;5.162;2022-12-24T09:06:32;101179.87;;;12.54;74.80
73918;BME280;63639;52.280;5.162;2022-12-24T09:08:59;101180.07;;;12.39;75.08
73918;BME280;63639;52.280;5.162;2022-12-24T09:11:26;101180.34;;;12.58;74.27
73918;BME280;63639;52.280;5.162;2022-12-24T09:13:53;101180.10;;;12.59;73.96
73918;BME280;63639;52.280;5.162;2022-12-24T09:16:20;101186.39;;;12.22;75.48
73918;BME280;63639;52.280;5.162;2022-12-24T09:18:47;101191.23;;;12.17;75.81
73918;BME280;63639;52.280;5.162;2022-12-24T09:21:15;101197.09;;;12.11;76.28
73918;BME280;63639;52.280;5.162;2022-12-24T09:23:43;101200.38;;;12.43;75.04
73918;BME280;63639;52.280;5.162;2022-12-24T09:26:13;101199.51;;;12.56;74.87
73918;BME280;63639;52.280;5.162;2022-12-24T09:28:40;101208.44;;;12.82;73.52
73918;BME280;63639;52.280;5.162;2022-12-24T09:31:08;101214.43;;;12.91;73.23
73918;BME280;63639;52.280;5.162;2022-12-24T09:33:37;101214.87;;;12.82;73.52
73918;BME280;63639;52.280;5.162;2022-12-24T09:36:06;101217.17;;;12.59;74.33
73918;BME280;63639;52.280;5.162;2022-12-24T09:38:34;101215.94;;;12.94;73.83
73918;BME280;63639;52.280;5.162;2022-12-24T09:41:11;101214.55;;;13.04;73.43
73918;BME280;63639;52.280;5.162;2022-12-24T09:43:39;101224.66;;;13.14;72.74
73918;BME280;63639;52.280;5.162;2022-12-24T09:46:15;101228.72;;;12.76;74.13
73918;BME280;63639;52.280;5.162;2022-12-24T09:48:46;101236.29;;;12.37;75.53
73918;BME280;63639;52.280;5.162;2022-12-24T09:51:22;101237.29;;;12.56;75.16
73918;BME280;63639;52.280;5.162;2022-12-24T09:53:53;101239.63;;;13.01;73.92
73918;BME280;63639;52.280;5.162;2022-12-24T09:56:26;101239.32;;;13.06;72.96
73918;BME280;63639;52.280;5.162;2022-12-24T09:58:57;101239.82;;;13.08;72.85
73918;BME280;63639;52.280;5.162;2022-12-24T10:01:28;101236.13;;;13.14;73.16
73918;BME280;63639;52.280;5.162;2022-12-24T10:03:56;101244.48;;;13.23;72.38
73918;BME280;63639;52.280;5.162;2022-12-24T10:06:29;101251.77;;;13.30;71.80
73918;BME280;63639;52.280;5.162;2022-12-24T10:09:09;101254.06;;;13.27;72.27
73918;BME280;63639;52.280;5.162;2022-12-24T10:11:44;101256.37;;;13.21;72.20
73918;BME280;63639;52.280;5.162;2022-12-24T10:14:25;101254.24;;;12.87;73.17
73918;BME280;63639;52.280;5.162;2022-12-24T10:17:05;101253.11;;;12.63;74.21
73918;BME280;63639;52.280;5.162;2022-12-24T10:19:43;101246.68;;;13.09;73.46
73918;BME280;63639;52.280;5.162;2022-12-24T10:22:19;101251.84;;;12.99;73.26
73918;BME280;63639;52.280;5.162;2022-12-24T10:24:56;101250.76;;;13.43;72.39
73918;BME280;63639;52.280;5.162;2022-12-24T10:27:31;101256.56;;;13.09;72.52
73918;BME280;63639;52.280;5.162;2022-12-24T10:30:03;101253.85;;;13.37;72.06
73918;BME280;63639;52.280;5.162;2022-12-24T10:32:33;101256.97;;;13.56;71.08
73918;BME280;63639;52.280;5.162;2022-12-24T10:35:16;101258.92;;;13.46;71.65
73918;BME280;63639;52.280;5.162;2022-12-24T10:37:47;101263.32;;;13.79;71.08
73918;BME280;63639;52.280;5.162;2022-12-24T10:40:22;101265.03;;;13.56;71.59
73918;BME280;63639;52.280;5.162;2022-12-24T10:42:50;101267.72;;;13.69;70.72
73918;BME280;63639;52.280;5.162;2022-12-24T10:45:20;101264.66;;;13.90;70.66
73918;BME280;63639;52.280;5.162;2022-12-24T10:47:51;101270.28;;;13.79;70.58
73918;BME280;63639;52.280;5.162;2022-12-24T10:50:26;101270.24;;;13.70;70.14
73918;BME280;63639;52.280;5.162;2022-12-24T10:52:59;101271.54;;;13.59;70.86
73918;BME280;63639;52.280;5.162;2022-12-24T10:55:29;101269.74;;;13.76;70.55
73918;BME280;63639;52.280;5.162;2022-12-24T10:57:59;101272.63;;;13.27;71.51
73918;BME280;63639;52.280;5.162;2022-12-24T11:00:28;101270.08;;;13.03;72.32
73918;BME280;63639;52.280;5.162;2022-12-24T11:03:30;101283.58;;;12.78;73.62
73918;BME280;63639;52.280;5.162;2022-12-24T11:06:02;101288.08;;;12.59;74.66
73918;BME280;63639;52.280;5.162;2022-12-24T11:08:29;101289.06;;;12.67;74.05
73918;BME280;63639;52.280;5.162;2022-12-24T11:10:58;101289.10;;;12.96;73.74
73918;BME280;63639;52.280;5.162;2022-12-24T11:13:27;101286.43;;;13.19;72.69
73918;BME280;63639;52.280;5.162;2022-12-24T11:16:00;101284.05;;;12.67;73.83
73918;BME280;63639;52.280;5.162;2022-12-24T11:18:28;101285.88;;;12.99;73.39
73918;BME280;63639;52.280;5.162;2022-12-24T11:20:56;101286.01;;;13.12;71.76
73918;BME280;63639;52.280;5.162;2022-12-24T11:23:24;101291.41;;;13.49;71.65
73918;BME280;63639;52.280;5.162;2022-12-24T11:25:51;101293.19;;;13.58;70.84
73918;BME280;63639;52.280;5.162;2022-12-24T11:28:21;101292.02;;;13.62;69.89
73918;BME280;63639;52.280;5.162;2022-12-24T11:30:58;101293.89;;;13.71;69.62
73918;BME280;63639;52.280;5.162;2022-12-24T11:33:26;101292.31;;;13.96;69.17
73918;BME280;63639;52.280;5.162;2022-12-24T11:35:56;101299.15;;;14.02;68.16
73918;BME280;63639;52.280;5.162;2022-12-24T11:38:27;101298.36;;;13.98;68.09
73918;BME280;63639;52.280;5.162;2022-12-24T11:40:59;101302.89;;;14.20;67.72
73918;BME280;63639;52.280;5.162;2022-12-24T11:43:27;101303.53;;;14.11;66.93
73918;BME280;63639;52.280;5.162;2022-12-24T11:46:11;101295.02;;;13.93;66.76
73918;BME280;63639;52.280;5.162;2022-12-24T11:48:38;101303.35;;;14.00;67.39
73918;BME280;63639;52.280;5.162;2022-12-24T11:51:16;101306.79;;;13.85;65.97
73918;BME280;63639;52.280;5.162;2022-12-24T11:53:48;101310.14;;;14.13;65.96
73918;BME280;63639;52.280;5.162;2022-12-24T11:56:27;101304.49;;;14.12;65.31
73918;BME280;63639;52.280;5.162;2022-12-24T11:59:01;101298.91;;;14.00;65.75
73918;BME280;63639;52.280;5.162;2022-12-24T12:01:34;101298.30;;;13.41;66.94
73918;BME280;63639;52.280;5.162;2022-12-24T12:04:06;101303.52;;;13.70;66.69
73918;BME280;63639;52.280;5.162;2022-12-24T12:06:39;101313.21;;;13.93;66.11
73918;BME280;63639;52.280;5.162;2022-12-24T12:09:12;101321.07;;;13.85;65.42
73918;BME280;63639;52.280;5.162;2022-12-24T12:11:41;101319.35;;;13.62;66.19
73918;BME280;63639;52.280;5.162;2022-12-24T12:14:16;101330.81;;;13.76;66.03
73918;BME280;63639;52.280;5.162;2022-12-24T12:16:48;101327.50;;;13.80;66.30
73918;BME280;63639;52.280;5.162;2022-12-24T12:19:18;101327.81;;;13.83;66.31
73918;BME280;63639;52.280;5.162;2022-12-24T12:21:48;101327.94;;;13.99;65.82
73918;BME280;63639;52.280;5.162;2022-12-24T12:24:19;101331.60;;;14.29;65.19
73918;BME280;63639;52.280;5.162;2022-12-24T12:26:56;101338.36;;;14.30;64.76
73918;BME280;63639;52.280;5.162;2022-12-24T12:29:31;101341.57;;;14.03;65.00
73918;BME280;63639;52.280;5.162;2022-12-24T12:32:03;101345.95;;;14.12;65.34
73918;BME280;63639;52.280;5.162;2022-12-24T12:34:36;101348.43;;;13.51;66.62
73918;BME280;63639;52.280;5.162;2022-12-24T12:37:09;101350.37;;;12.98;68.89
73918;BME280;63639;52.280;5.162;2022-12-24T12:39:38;101358.93;;;13.25;69.03
73918;BME280;63639;52.280;5.162;2022-12-24T12:42:12;101354.81;;;13.40;68.36
73918;BME280;63639;52.280;5.162;2022-12-24T12:44:59;101349.97;;;13.70;67.37
73918;BME280;63639;52.280;5.162;2022-12-24T12:47:41;101354.73;;;13.83;66.59
73918;BME280;63639;52.280;5.162;2022-12-24T12:50:17;101352.15;;;13.70;66.38
73918;BME280;63639;52.280;5.162;2022-12-24T12:53:01;101357.44;;;13.90;66.40
73918;BME280;63639;52.280;5.162;2022-12-24T12:55:41;101364.39;;;13.93;66.29
73918;BME280;63639;52.280;5.162;2022-12-24T12:58:18;101362.59;;;13.97;65.55
73918;BME280;63639;52.280;5.162;2022-12-24T13:00:51;101363.76;;;13.69;66.57
73918;BME280;63639;52.280;5.162;2022-12-24T13:03:42;101368.12;;;13.70;66.95